createdAt,value
2024-03-06T00:01:29.336Z,86.84
2024-03-06T00:04:03.203Z,86.89
2024-03-06T00:06:37.781Z,86.73
2024-03-06T00:09:09.985Z,86.52
2024-03-06T00:11:43.680Z,86.55
2024-03-06T00:14:20.043Z,86.71
2024-03-06T00:16:57.202Z,87.05
2024-03-06T00:19:33.126Z,86.70
2024-03-06T00:22:05.000Z,86.33
2024-03-06T00:24:38.670Z,85.98
2024-03-06T00:27:14.664Z,86.04
2024-03-06T00:29:50.381Z,85.79
2024-03-06T00:32:24.890Z,86.03
2024-03-06T00:34:58.429Z,86.61
2024-03-06T00:37:34.730Z,86.91
2024-03-06T00:40:11.057Z,86.67
2024-03-06T00:42:44.754Z,87.20
2024-03-06T00:45:18.245Z,87.35
2024-03-06T00:47:54.132Z,87.40
2024-03-06T00:50:27.534Z,87.30
2024-03-06T00:53:04.563Z,87.30
2024-03-06T00:55:40.628Z,87.34
2024-03-06T00:58:14.093Z,87.64
2024-03-06T01:00:47.825Z,87.71
2024-03-06T01:03:19.029Z,87.64
2024-03-06T01:05:54.839Z,87.48
2024-03-06T01:08:29.374Z,87.28
2024-03-06T01:11:05.986Z,87.71
2024-03-06T01:13:42.438Z,87.24
2024-03-06T01:16:13.946Z,86.87
2024-03-06T01:18:45.404Z,86.81
2024-03-06T01:21:21.489Z,86.66
2024-03-06T01:23:56.940Z,86.81
2024-03-06T01:26:30.200Z,86.97
2024-03-06T01:29:04.007Z,87.15
2024-03-06T01:31:38.699Z,87.23
2024-03-06T01:34:12.442Z,87.40
2024-03-06T01:36:46.108Z,87.36
2024-03-06T01:39:19.702Z,87.38
2024-03-06T01:41:52.256Z,87.67
2024-03-06T01:44:23.471Z,87.53
2024-03-06T01:46:57.493Z,87.50
2024-03-06T01:49:36.987Z,87.56
2024-03-06T01:52:22.124Z,87.46
2024-03-06T01:54:58.240Z,87.57
2024-03-06T01:57:29.838Z,87.41
2024-03-06T02:00:02.869Z,87.80
2024-03-06T02:02:42.995Z,87.97
2024-03-06T02:05:22.117Z,87.88
2024-03-06T02:07:56.650Z,88.20
2024-03-06T02:10:28.443Z,88.30
2024-03-06T02:13:04.701Z,88.42
2024-03-06T02:15:38.270Z,87.84
2024-03-06T02:18:10.780Z,87.23
2024-03-06T02:20:42.805Z,86.85
2024-03-06T02:23:14.655Z,86.60
2024-03-06T02:25:49.802Z,86.18
2024-03-06T02:28:28.213Z,86.00
2024-03-06T02:31:01.761Z,86.02
2024-03-06T02:33:35.528Z,86.04
2024-03-06T02:36:07.036Z,85.98
2024-03-06T02:38:40.744Z,85.75
2024-03-06T02:41:17.470Z,85.58
2024-03-06T02:43:51.083Z,85.70
2024-03-06T02:46:22.523Z,85.31
2024-03-06T02:48:58.793Z,84.73
2024-03-06T02:51:37.389Z,85.22
2024-03-06T02:54:10.781Z,85.16
2024-03-06T02:56:46.378Z,85.36
2024-03-06T02:59:20.268Z,85.07
2024-03-06T03:01:54.462Z,84.22
2024-03-06T03:04:28.291Z,84.78
2024-03-06T03:07:02.756Z,84.45
2024-03-06T03:09:37.603Z,83.32
2024-03-06T03:12:13.674Z,82.83
2024-03-06T03:14:45.413Z,83.13
2024-03-06T03:17:18.969Z,83.61
2024-03-06T03:19:54.214Z,84.12
2024-03-06T03:22:29.630Z,84.47
2024-03-06T03:25:08.655Z,84.43
2024-03-06T03:27:45.740Z,84.75
2024-03-06T03:30:23.749Z,85.40
2024-03-06T03:32:56.013Z,84.89
2024-03-06T03:35:33.378Z,84.57
2024-03-06T03:38:09.660Z,85.47
2024-03-06T03:40:41.241Z,85.65
2024-03-06T03:43:15.877Z,86.09
2024-03-06T03:45:54.049Z,86.07
2024-03-06T03:48:27.374Z,86.07
2024-03-06T03:51:00.761Z,85.96
2024-03-06T03:53:39.086Z,86.52
2024-03-06T03:56:12.676Z,86.79
2024-03-06T03:58:49.623Z,87.16
2024-03-06T04:01:23.113Z,87.24
2024-03-06T04:03:59.078Z,87.10
2024-03-06T04:06:35.236Z,86.22
2024-03-06T04:09:06.496Z,86.78
2024-03-06T04:11:39.086Z,86.83
2024-03-06T04:14:13.478Z,86.63
2024-03-06T04:16:44.687Z,86.67
2024-03-06T04:19:22.562Z,86.48
2024-03-06T04:21:57.721Z,85.24
2024-03-06T04:24:36.187Z,83.70
2024-03-06T04:27:09.738Z,84.04
2024-03-06T04:29:43.431Z,84.48
2024-03-06T04:32:19.612Z,84.24
2024-03-06T04:34:54.688Z,84.19
2024-03-06T04:37:31.073Z,84.20
2024-03-06T04:40:05.067Z,84.17
2024-03-06T04:42:39.377Z,84.02
2024-03-06T04:45:18.245Z,84.63
2024-03-06T04:47:51.631Z,84.80
2024-03-06T04:50:22.968Z,85.82
2024-03-06T04:52:59.765Z,86.40
2024-03-06T04:55:38.428Z,86.95
2024-03-06T04:58:09.973Z,87.03
2024-03-06T05:00:43.293Z,87.01
2024-03-06T05:59:18.487Z,84.23
2024-03-06T06:01:54.613Z,85.08
2024-03-06T06:04:30.943Z,85.19
2024-03-06T06:07:07.970Z,85.91
2024-03-06T06:09:41.954Z,86.95
2024-03-06T06:12:20.253Z,87.13
2024-03-06T06:14:55.578Z,87.59
2024-03-06T06:17:31.471Z,87.38
2024-03-06T06:20:03.029Z,87.35
2024-03-06T06:22:37.006Z,87.69
2024-03-06T06:25:13.958Z,87.73
2024-03-06T06:27:50.134Z,87.88
2024-03-06T06:30:25.995Z,88.04
2024-03-06T06:32:59.526Z,88.20
2024-03-06T06:35:31.045Z,88.17
2024-03-06T06:38:06.987Z,88.06
2024-03-06T06:40:42.005Z,87.42
2024-03-06T06:43:20.179Z,87.17
2024-03-06T06:45:54.636Z,86.51
2024-03-06T06:48:29.612Z,86.30
2024-03-06T06:51:05.701Z,86.06
2024-03-06T06:53:39.090Z,85.35
2024-03-06T06:56:10.459Z,84.27
2024-03-06T06:58:46.539Z,83.90
2024-03-06T07:01:18.321Z,83.70
2024-03-06T07:03:49.995Z,83.81
2024-03-06T07:06:23.937Z,84.20
2024-03-06T07:08:57.252Z,82.95
2024-03-06T07:11:30.594Z,83.94
2024-03-06T07:14:06.437Z,83.71
2024-03-06T07:16:48.795Z,83.62
2024-03-06T07:19:22.345Z,83.75
2024-03-06T07:21:55.636Z,83.00
2024-03-06T07:24:27.066Z,83.85
2024-03-06T07:27:03.038Z,83.59
2024-03-06T07:29:36.501Z,83.55
2024-03-06T07:32:15.961Z,83.92
2024-03-06T07:34:47.766Z,83.62
2024-03-06T07:37:18.959Z,83.80
2024-03-06T07:39:54.010Z,84.26
2024-03-06T07:42:27.891Z,84.46
2024-03-06T07:45:08.856Z,85.04
2024-03-06T07:47:47.997Z,85.15
2024-03-06T07:50:27.053Z,85.50
2024-03-06T07:53:03.830Z,85.28
2024-03-06T07:55:35.056Z,85.59
2024-03-06T07:58:09.555Z,86.03
2024-03-06T08:00:45.565Z,85.79
2024-03-06T08:03:16.740Z,85.99
2024-03-06T08:05:48.397Z,86.27
2024-03-06T08:08:19.671Z,87.21
2024-03-06T08:10:51.675Z,87.41
2024-03-06T08:13:25.546Z,86.97
2024-03-06T08:15:59.136Z,87.35
2024-03-06T08:18:37.857Z,87.34
2024-03-06T08:21:13.841Z,88.70
2024-03-06T08:23:49.374Z,88.99
2024-03-06T08:26:22.918Z,90.35
2024-03-06T08:28:56.754Z,90.31
2024-03-06T08:31:28.578Z,91.19
2024-03-06T08:34:02.394Z,92.25
2024-03-06T08:36:34.003Z,93.16
2024-03-06T08:39:08.022Z,94.19
2024-03-06T08:41:41.821Z,94.32
2024-03-06T08:44:16.048Z,94.87
2024-03-06T08:46:49.828Z,95.36
2024-03-06T08:49:25.839Z,94.52
2024-03-06T08:51:59.346Z,94.41
2024-03-06T08:54:33.481Z,94.89
2024-03-06T08:57:07.475Z,95.25
2024-03-06T08:59:53.224Z,95.59
2024-03-06T09:02:26.924Z,95.41
2024-03-06T09:05:00.648Z,95.25
2024-03-06T09:07:31.953Z,94.93
2024-03-06T09:10:07.232Z,95.47
2024-03-06T09:12:40.819Z,95.54
2024-03-06T09:15:14.745Z,95.49
2024-03-06T09:17:47.212Z,96.03
2024-03-06T09:20:18.494Z,96.20
2024-03-06T09:22:58.301Z,96.48
2024-03-06T09:25:33.081Z,96.79
2024-03-06T09:28:06.925Z,97.00
2024-03-06T09:30:40.377Z,96.14
2024-03-06T09:33:14.112Z,95.36
2024-03-06T09:35:46.819Z,96.19
2024-03-06T09:38:22.454Z,95.25
2024-03-06T09:41:03.190Z,95.23
2024-03-06T09:43:43.502Z,95.56
2024-03-06T09:46:17.180Z,95.27
2024-03-06T09:48:52.950Z,94.96
2024-03-06T09:51:24.615Z,94.50
2024-03-06T09:53:58.739Z,94.64
2024-03-06T09:56:36.675Z,94.40
2024-03-06T09:59:10.490Z,94.46
2024-03-06T10:02:04.113Z,94.54
2024-03-06T10:04:39.339Z,94.68
2024-03-06T10:07:15.363Z,94.26
2024-03-06T10:09:46.549Z,93.93
2024-03-06T10:12:22.459Z,93.84
2024-03-06T10:14:58.348Z,93.57
2024-03-06T10:17:32.376Z,93.62
2024-03-06T10:20:24.105Z,93.48
2024-03-06T10:22:59.369Z,92.73
2024-03-06T10:25:30.808Z,91.96
2024-03-06T10:28:13.004Z,91.02
2024-03-06T10:30:48.815Z,90.54
2024-03-06T10:33:22.524Z,90.94
2024-03-06T10:35:54.089Z,91.27
2024-03-06T10:38:28.101Z,91.19
2024-03-06T10:41:04.953Z,91.55
2024-03-06T10:43:42.539Z,89.86
2024-03-06T10:46:15.904Z,90.52
2024-03-06T10:48:56.554Z,88.15
2024-03-06T10:51:31.560Z,87.97
2024-03-06T10:54:08.736Z,87.20
2024-03-06T10:56:44.248Z,88.19
2024-03-06T10:59:20.665Z,87.57
2024-03-06T11:01:55.805Z,87.83
2024-03-06T11:04:36.084Z,88.60
2024-03-06T11:07:12.495Z,87.58
2024-03-06T11:09:51.231Z,89.94
2024-03-06T11:12:42.620Z,88.29
2024-03-06T11:15:20.037Z,88.12
2024-03-06T11:17:56.336Z,87.77
2024-03-06T11:20:29.103Z,85.81
2024-03-06T11:23:01.208Z,84.80
2024-03-06T11:25:52.882Z,86.21
2024-03-06T11:28:31.364Z,85.59
2024-03-06T11:31:13.400Z,86.78
2024-03-06T11:33:47.950Z,84.29
2024-03-06T11:36:31.976Z,83.23
2024-03-06T11:39:12.240Z,84.80
2024-03-06T11:41:52.158Z,85.20
2024-03-06T11:44:27.350Z,84.26
2024-03-06T11:47:05.095Z,82.46
2024-03-06T11:49:42.080Z,81.41
2024-03-06T11:52:15.791Z,83.19
2024-03-06T11:54:55.914Z,82.66
2024-03-06T11:57:29.970Z,82.20
2024-03-06T12:00:10.013Z,81.41
2024-03-06T12:02:46.950Z,81.81
2024-03-06T12:05:26.228Z,77.88
2024-03-06T12:08:04.740Z,79.48
2024-03-06T12:10:43.863Z,79.29
2024-03-06T12:13:18.044Z,76.79
2024-03-06T12:15:49.530Z,77.64
2024-03-06T12:18:24.079Z,78.02
2024-03-06T12:20:57.864Z,76.09
2024-03-06T12:23:29.161Z,75.66
2024-03-06T12:26:12.665Z,73.44
2024-03-06T12:28:46.309Z,73.75
2024-03-06T12:31:19.798Z,72.64
2024-03-06T12:34:03.193Z,73.94
2024-03-06T12:36:37.581Z,73.21
2024-03-06T12:39:14.421Z,74.07
2024-03-06T12:41:48.413Z,71.85
2024-03-06T12:44:23.239Z,71.80
2024-03-06T12:46:58.883Z,72.28
2024-03-06T12:49:30.434Z,71.83
2024-03-06T12:52:06.580Z,71.86
2024-03-06T12:54:37.907Z,70.95
2024-03-06T12:57:12.014Z,67.40
2024-03-06T12:59:45.038Z,68.71
2024-03-06T13:02:16.243Z,67.63
2024-03-06T13:04:47.448Z,66.39
2024-03-06T13:07:21.049Z,66.55
2024-03-06T13:09:56.602Z,68.63
2024-03-06T13:12:32.461Z,67.38
2024-03-06T13:15:13.656Z,67.16
2024-03-06T13:17:45.179Z,67.55
2024-03-06T13:20:18.697Z,66.83
2024-03-06T13:22:51.997Z,66.50
2024-03-06T13:25:26.033Z,66.69
2024-03-06T13:28:01.857Z,64.46
2024-03-06T13:30:35.507Z,65.73
2024-03-06T13:33:13.468Z,65.69
2024-03-06T13:35:50.381Z,64.03
2024-03-06T13:38:29.606Z,63.73
2024-03-06T13:41:08.382Z,63.20
2024-03-06T13:43:44.406Z,61.42
2024-03-06T13:46:18.093Z,58.36
2024-03-06T13:48:53.835Z,59.41
2024-03-06T13:51:27.440Z,60.59
2024-03-06T13:54:00.847Z,57.91
2024-03-06T13:56:34.199Z,58.46
2024-03-06T13:59:12.269Z,61.28
2024-03-06T14:01:50.629Z,57.71
2024-03-06T14:04:22.026Z,60.32
2024-03-06T14:06:58.414Z,59.62
2024-03-06T14:09:30.639Z,57.37
2024-03-06T14:12:04.611Z,59.20
2024-03-06T14:14:40.636Z,57.78
2024-03-06T14:17:15.401Z,61.40
2024-03-06T14:19:49.201Z,59.25
2024-03-06T14:22:23.026Z,58.77
2024-03-06T14:24:54.175Z,57.14
2024-03-06T14:27:25.415Z,58.91
2024-03-06T14:29:58.802Z,59.54
2024-03-06T14:32:30.193Z,60.14
2024-03-06T14:35:06.011Z,59.66
2024-03-06T14:37:45.376Z,59.66
2024-03-06T14:40:19.136Z,58.48
2024-03-06T14:42:52.286Z,59.43
2024-03-06T14:45:24.648Z,59.47
2024-03-06T14:47:56.466Z,58.85
2024-03-06T14:50:30.153Z,59.12
2024-03-06T14:53:03.704Z,59.15
2024-03-06T14:55:35.440Z,58.88
2024-03-06T14:58:08.844Z,58.20
2024-03-06T15:00:49.308Z,59.73
2024-03-06T15:03:28.448Z,60.90
2024-03-06T15:06:01.896Z,60.81
2024-03-06T15:08:36.100Z,60.77
2024-03-06T15:11:10.239Z,62.75
2024-03-06T15:13:44.096Z,61.48
2024-03-06T15:16:17.748Z,62.44
2024-03-06T15:18:52.653Z,61.37
2024-03-06T15:21:33.721Z,61.22
2024-03-06T15:24:06.151Z,61.99
2024-03-06T15:26:45.844Z,62.30
2024-03-06T15:29:19.730Z,61.62
2024-03-06T15:31:51.069Z,60.91
2024-03-06T15:34:26.963Z,61.95
2024-03-06T15:37:01.371Z,60.51
2024-03-06T15:39:32.830Z,58.35
2024-03-06T15:42:04.588Z,57.45
2024-03-06T15:44:43.392Z,56.03
2024-03-06T15:47:16.950Z,54.83
2024-03-06T15:49:52.817Z,54.65
2024-03-06T15:52:26.344Z,54.63
2024-03-06T15:55:06.047Z,57.12
2024-03-06T15:57:41.983Z,56.52
2024-03-06T16:00:18.026Z,57.19
2024-03-06T16:02:51.787Z,57.42
2024-03-06T16:05:23.453Z,58.51
2024-03-06T16:08:05.181Z,58.82
2024-03-06T16:10:41.491Z,59.71
2024-03-06T16:13:14.912Z,59.58
2024-03-06T16:15:48.810Z,59.95
2024-03-06T16:18:22.804Z,60.70
2024-03-06T16:20:57.038Z,59.74
2024-03-06T16:23:33.389Z,59.51
2024-03-06T16:26:07.714Z,59.96
2024-03-06T16:28:43.501Z,61.45
2024-03-06T16:31:20.427Z,61.03
2024-03-06T16:33:54.183Z,60.71
2024-03-06T16:36:30.318Z,61.52
2024-03-06T16:39:01.615Z,62.90
2024-03-06T16:41:36.964Z,63.34
2024-03-06T16:44:09.222Z,63.24
2024-03-06T16:46:43.143Z,62.58
2024-03-06T16:49:19.635Z,62.41
2024-03-06T16:51:55.878Z,62.79
2024-03-06T16:54:33.445Z,63.05
2024-03-06T16:57:12.489Z,63.16
2024-03-06T16:59:49.157Z,63.64
2024-03-06T17:02:22.919Z,63.53
2024-03-06T17:04:56.363Z,64.02
2024-03-06T17:07:27.842Z,63.81
2024-03-06T17:10:03.622Z,64.20
2024-03-06T17:12:39.481Z,64.25
2024-03-06T17:15:20.696Z,65.08
2024-03-06T17:17:57.599Z,65.31
2024-03-06T17:20:31.520Z,65.73
2024-03-06T17:23:05.054Z,66.01
2024-03-06T17:25:38.856Z,66.35
2024-03-06T17:28:12.342Z,67.18
2024-03-06T17:30:44.910Z,67.47
2024-03-06T17:33:21.009Z,67.83
2024-03-06T17:35:58.583Z,68.08
2024-03-06T17:38:35.272Z,67.81
2024-03-06T17:41:08.738Z,68.25
2024-03-06T17:43:39.979Z,68.75
2024-03-06T17:46:16.624Z,68.86
2024-03-06T17:48:47.929Z,69.01
2024-03-06T17:51:23.078Z,69.55
2024-03-06T17:53:56.682Z,69.78
2024-03-06T17:56:28.911Z,69.88
2024-03-06T17:59:03.067Z,70.19
2024-03-06T18:01:39.073Z,70.43
2024-03-06T18:04:13.690Z,70.61
2024-03-06T18:06:47.962Z,70.90
2024-03-06T18:09:23.665Z,71.34
2024-03-06T18:11:57.896Z,71.92
2024-03-06T18:14:31.638Z,71.71
2024-03-06T18:17:06.124Z,71.81
2024-03-06T18:19:42.311Z,72.00
2024-03-06T18:22:16.567Z,72.39
2024-03-06T18:24:50.420Z,72.91
2024-03-06T18:27:28.601Z,73.23
2024-03-06T18:29:59.898Z,73.59
2024-03-06T18:32:34.258Z,73.92
2024-03-06T18:35:06.407Z,73.95
2024-03-06T18:37:39.973Z,74.17
2024-03-06T18:40:14.788Z,74.05
2024-03-06T18:42:51.218Z,74.41
2024-03-06T18:45:22.730Z,74.72
2024-03-06T18:47:56.400Z,74.44
2024-03-06T18:50:33.057Z,74.48
2024-03-06T18:53:07.177Z,74.35
2024-03-06T18:55:41.194Z,74.33
2024-03-06T18:58:15.047Z,74.85
2024-03-06T19:00:51.540Z,75.21
2024-03-06T19:03:27.812Z,75.28
2024-03-06T19:06:01.520Z,75.16
2024-03-06T19:08:32.903Z,75.52
2024-03-06T19:11:06.434Z,75.41
2024-03-06T19:13:40.846Z,75.61
2024-03-06T19:16:12.151Z,75.89
2024-03-06T19:18:45.805Z,76.21
2024-03-06T19:21:19.376Z,76.40
2024-03-06T19:23:53.312Z,76.48
2024-03-06T19:26:29.011Z,76.53
2024-03-06T19:29:00.328Z,76.75
2024-03-06T19:31:36.284Z,76.90
2024-03-06T19:34:07.810Z,76.94
2024-03-06T19:36:39.238Z,77.24
2024-03-06T19:39:10.836Z,77.67
2024-03-06T19:41:45.242Z,78.10
2024-03-06T19:44:20.929Z,77.99
2024-03-06T19:46:54.709Z,78.15
2024-03-06T19:49:30.236Z,78.37
2024-03-06T19:52:04.162Z,78.59
2024-03-06T19:54:38.035Z,78.55
2024-03-06T19:57:11.722Z,78.55
2024-03-06T19:59:50.268Z,78.76
2024-03-06T20:02:21.612Z,78.69
2024-03-06T20:04:55.983Z,78.84
2024-03-06T20:07:29.311Z,78.75
2024-03-06T20:10:02.786Z,78.80
2024-03-06T20:12:34.099Z,78.74
2024-03-06T20:15:08.578Z,78.97
2024-03-06T20:17:44.774Z,79.42
2024-03-06T20:20:18.710Z,79.29
2024-03-06T20:22:50.153Z,79.28
2024-03-06T20:25:26.638Z,79.38
2024-03-06T20:28:02.387Z,79.75
2024-03-06T20:30:33.707Z,79.76
2024-03-06T20:33:10.576Z,79.96
2024-03-06T20:35:42.137Z,80.03
2024-03-06T20:38:17.098Z,80.12
2024-03-06T20:40:57.405Z,80.01
2024-03-06T20:43:28.880Z,80.45
2024-03-06T20:46:04.153Z,80.12
2024-03-06T20:48:35.738Z,80.31
2024-03-06T20:51:13.249Z,80.36
2024-03-06T20:53:46.693Z,80.16
2024-03-06T20:56:20.467Z,80.15
2024-03-06T20:58:52.114Z,80.03
2024-03-06T21:01:25.703Z,79.91
2024-03-06T21:03:59.238Z,79.84
2024-03-06T21:06:35.182Z,79.92
2024-03-06T21:09:11.997Z,80.01
2024-03-06T21:11:45.606Z,79.90
2024-03-06T21:14:17.184Z,79.94
2024-03-06T21:16:54.400Z,79.89
2024-03-06T21:19:30.681Z,80.18
2024-03-06T21:22:02.390Z,80.41
2024-03-06T21:24:39.142Z,80.45
2024-03-06T21:27:12.721Z,80.58
2024-03-06T21:29:50.957Z,80.62
2024-03-06T21:32:27.114Z,80.75
2024-03-06T21:34:59.809Z,80.82
2024-03-06T21:37:39.850Z,80.95
2024-03-06T21:40:16.093Z,80.96
2024-03-06T21:42:49.787Z,81.11
2024-03-06T21:45:25.960Z,81.11
2024-03-06T21:47:57.584Z,81.02
2024-03-06T21:50:28.897Z,81.00
2024-03-06T21:53:04.930Z,81.22
2024-03-06T21:55:40.511Z,81.32
2024-03-06T21:58:11.833Z,81.26
2024-03-06T22:00:43.055Z,81.54
2024-03-06T22:03:18.755Z,81.64
2024-03-06T22:05:52.421Z,81.75
2024-03-06T22:08:23.824Z,81.66
2024-03-06T22:10:57.386Z,81.41
2024-03-06T22:13:33.903Z,81.49
2024-03-06T22:16:07.659Z,81.51
2024-03-06T22:18:44.750Z,81.66
2024-03-06T22:21:19.235Z,81.77
2024-03-06T22:23:53.435Z,81.67
2024-03-06T22:26:27.232Z,81.59
2024-03-06T22:28:58.728Z,81.88
2024-03-06T22:31:29.964Z,82.18
2024-03-06T22:34:08.419Z,82.01
2024-03-06T22:36:41.734Z,81.94
2024-03-06T22:39:20.144Z,82.21
2024-03-06T22:41:54.038Z,82.27
2024-03-06T22:44:30.816Z,82.13
2024-03-06T22:47:08.456Z,82.10
2024-03-06T22:49:44.509Z,81.94
2024-03-06T22:52:15.717Z,81.99
2024-03-06T22:54:46.922Z,82.15
2024-03-06T22:57:18.091Z,82.34
2024-03-06T22:59:54.461Z,82.13
2024-03-06T23:02:30.869Z,82.09
2024-03-06T23:05:02.246Z,82.20
2024-03-06T23:07:35.946Z,82.16
2024-03-06T23:10:12.534Z,82.27
2024-03-06T23:12:46.077Z,81.65
2024-03-06T23:15:21.259Z,81.66
2024-03-06T23:17:56.851Z,81.32
2024-03-06T23:20:31.230Z,81.41
2024-03-06T23:23:02.573Z,81.30
2024-03-06T23:25:34.384Z,81.47
2024-03-06T23:28:12.215Z,81.60
2024-03-06T23:30:46.018Z,81.91
2024-03-06T23:33:19.345Z,82.15
2024-03-06T23:35:52.962Z,82.44
2024-03-06T23:38:28.568Z,82.78
2024-03-06T23:41:02.057Z,83.16
2024-03-06T23:43:33.585Z,83.23
2024-03-06T23:46:09.365Z,83.43
2024-03-06T23:48:40.730Z,83.57
2024-03-06T23:51:16.973Z,83.37
2024-03-06T23:53:48.265Z,84.06
2024-03-06T23:56:25.463Z,84.26
2024-03-06T23:58:59.190Z,84.40
